Time;durP1;ratioP1;P1;durP2;ratioP2;P2;SDS_P1;SDS_P2;PMS_P1;PMS_P2;Temp;Humidity;BMP_temperature;BMP_pressure;BME280_temperature;BME280_humidity;BME280_pressure;Samples;Min_cycle;Max_cycle;Signal;HPM_P1;HPM_P2
2022/05/19 00:02:08;;;;;;;9.13;7.10;;;19.50;99.90;;;;;;5047064;28;20342;-76
2022/05/19 00:04:41;;;;;;;9.82;7.57;;;19.50;99.90;;;;;;5045024;28;20029;-77
2022/05/19 00:07:09;;;;;;;12.38;8.05;;;19.50;99.90;;;;;;5060252;28;20589;-76
2022/05/19 00:09:42;;;;;;;10.52;7.10;;;19.50;99.90;;;;;;5031469;28;20051;-76
2022/05/19 00:12:14;;;;;;;13.55;10.50;;;19.50;99.90;;;;;;5031395;28;20021;-77
2022/05/19 00:14:43;;;;;;;13.40;9.30;;;19.50;99.90;;;;;;5063861;28;20377;-76
2022/05/19 00:17:10;;;;;;;12.70;9.95;;;19.50;99.90;;;;;;5046137;28;20032;-76
2022/05/19 00:19:37;;;;;;;7.15;5.88;;;19.50;99.90;;;;;;5047088;28;20048;-76
2022/05/19 00:22:05;;;;;;;11.13;6.90;;;19.50;99.90;;;;;;5016608;28;20033;-79
2022/05/19 00:24:35;;;;;;;15.95;9.85;;;19.50;99.90;;;;;;5054175;28;20032;-79
2022/05/19 00:27:05;;;;;;;10.70;7.30;;;19.50;99.90;;;;;;5054190;28;20032;-80
2022/05/19 00:29:33;;;;;;;16.30;10.52;;;19.50;99.90;;;;;;5055982;28;20048;-79
2022/05/19 00:32:01;;;;;;;11.80;9.82;;;19.50;99.90;;;;;;5048108;28;20040;-78
2022/05/19 00:34:30;;;;;;;11.98;9.20;;;19.50;99.90;;;;;;5031731;28;20048;-79
2022/05/19 00:37:02;;;;;;;14.32;10.95;;;19.50;99.90;;;;;;5044253;28;20035;-80
2022/05/19 00:39:32;;;;;;;19.30;12.82;;;19.50;99.90;;;;;;5047774;28;20025;-79
2022/05/19 00:44:43;;;;;;;14.45;11.50;;;19.50;99.90;;;;;;5047346;28;20025;-79
2022/05/19 00:47:19;;;;;;;18.98;13.88;;;19.50;99.90;;;;;;5036124;28;20049;-79
2022/05/19 00:49:47;;;;;;;25.27;17.42;;;19.50;99.90;;;;;;5045511;28;20044;-79
2022/05/19 00:52:36;;;;;;;18.35;12.25;;;19.50;99.90;;;;;;5062497;28;20033;-79
2022/05/19 00:55:07;;;;;;;15.55;12.13;;;19.40;99.90;;;;;;5045697;28;20028;-80
2022/05/19 00:57:38;;;;;;;19.57;11.13;;;19.50;99.90;;;;;;5042773;28;20405;-80
2022/05/19 01:00:10;;;;;;;14.90;11.85;;;19.40;99.90;;;;;;5049672;28;20275;-79
2022/05/19 01:02:41;;;;;;;20.00;13.95;;;19.40;99.90;;;;;;5061857;28;20017;-80
2022/05/19 01:05:21;;;;;;;17.95;14.50;;;19.40;99.90;;;;;;5032604;28;20041;-79
2022/05/19 01:07:57;;;;;;;14.90;13.15;;;19.30;99.90;;;;;;5056208;28;20388;-80
2022/05/19 01:10:25;;;;;;;17.15;13.35;;;19.30;99.90;;;;;;5028718;28;20519;-80
2022/05/19 01:12:53;;;;;;;26.80;16.95;;;19.30;99.90;;;;;;5046370;28;20037;-79
2022/05/19 01:15:20;;;;;;;16.48;13.80;;;19.30;99.90;;;;;;5032313;28;20036;-80
2022/05/19 01:17:46;;;;;;;21.08;14.48;;;19.30;99.90;;;;;;5042949;28;20028;-80
2022/05/19 01:20:21;;;;;;;16.45;14.65;;;19.30;99.90;;;;;;5045498;28;20029;-80
2022/05/19 01:22:51;;;;;;;19.52;15.48;;;19.20;99.90;;;;;;5050124;28;20033;-80
2022/05/19 01:25:22;;;;;;;15.68;12.65;;;19.20;99.90;;;;;;5043974;28;20048;-79
2022/05/19 01:27:50;;;;;;;17.30;12.63;;;19.20;99.90;;;;;;5041847;28;20380;-80
2022/05/19 01:30:16;;;;;;;14.55;12.48;;;19.20;99.90;;;;;;5026749;28;20029;-80
2022/05/19 01:32:43;;;;;;;17.85;13.32;;;19.20;99.90;;;;;;5010736;28;20036;-79
2022/05/19 01:35:10;;;;;;;16.50;13.65;;;19.10;99.90;;;;;;5029848;28;20048;-77
2022/05/19 01:37:37;;;;;;;16.52;13.18;;;19.10;99.90;;;;;;5041913;28;20021;-77
2022/05/19 01:40:32;;;;;;;15.57;11.65;;;19.10;99.90;;;;;;5045636;28;20048;-76
2022/05/19 01:43:24;;;;;;;13.50;11.95;;;19.10;99.90;;;;;;5028542;28;20033;-77
2022/05/19 01:46:12;;;;;;;15.18;12.57;;;19.10;99.90;;;;;;5045960;28;20033;-77
2022/05/19 01:49:00;;;;;;;16.15;13.90;;;19.10;99.90;;;;;;5045565;28;20037;-77
2022/05/19 01:51:38;;;;;;;16.50;13.48;;;19.10;99.90;;;;;;5026062;28;20104;-77
2022/05/19 01:54:21;;;;;;;16.80;12.73;;;19.10;99.90;;;;;;5042813;28;20025;-77
2022/05/19 01:56:58;;;;;;;20.20;14.40;;;19.00;99.90;;;;;;5057351;28;20464;-77
2022/05/19 02:00:05;;;;;;;23.90;17.58;;;19.00;99.90;;;;;;5038224;28;20036;-77
2022/05/19 02:02:38;;;;;;;21.17;13.88;;;19.00;99.90;;;;;;4960374;28;20047;-77
2022/05/19 02:05:32;;;;;;;19.23;13.85;;;19.00;99.90;;;;;;5035368;28;20048;-78
2022/05/19 02:08:01;;;;;;;14.05;12.55;;;19.00;99.90;;;;;;5040999;28;20033;-77
2022/05/19 02:10:36;;;;;;;21.08;15.07;;;19.00;99.90;;;;;;5029559;28;20045;-77
2022/05/19 02:13:04;;;;;;;16.10;12.25;;;18.90;99.90;;;;;;5044418;28;20044;-79
2022/05/19 02:15:34;;;;;;;14.38;12.52;;;18.90;99.90;;;;;;5029327;28;20033;-79
2022/05/19 02:18:01;;;;;;;14.32;12.82;;;18.90;99.90;;;;;;5023338;28;20037;-79
2022/05/19 02:20:29;;;;;;;20.20;15.07;;;18.90;99.90;;;;;;5025853;28;20032;-79
2022/05/19 02:22:58;;;;;;;25.05;18.60;;;18.90;99.90;;;;;;5046111;28;20496;-79
2022/05/19 02:25:28;;;;;;;18.17;14.57;;;18.80;99.90;;;;;;5029891;28;20021;-79
2022/05/19 02:28:15;;;;;;;15.82;13.48;;;18.80;99.90;;;;;;5026530;28;20035;-79
2022/05/19 02:30:55;;;;;;;15.18;12.70;;;18.80;99.90;;;;;;5028286;28;20033;-79
2022/05/19 02:33:26;;;;;;;15.27;10.32;;;18.80;99.90;;;;;;5045095;28;20056;-79
2022/05/19 02:35:58;;;;;;;18.17;14.48;;;18.80;99.90;;;;;;5045633;28;20041;-79
2022/05/19 02:38:24;;;;;;;20.60;14.48;;;18.80;99.90;;;;;;5044540;28;20040;-79
2022/05/19 02:40:55;;;;;;;14.02;11.60;;;18.80;99.90;;;;;;5030140;28;20024;-77
2022/05/19 02:43:22;;;;;;;16.58;12.45;;;18.70;99.90;;;;;;5044563;28;20033;-78
2022/05/19 02:45:49;;;;;;;16.45;12.07;;;18.70;99.90;;;;;;5033483;28;20029;-82
2022/05/19 02:48:17;;;;;;;17.75;12.85;;;18.70;99.90;;;;;;5039408;28;20045;-80
2022/05/19 02:50:46;;;;;;;15.38;12.48;;;18.70;99.90;;;;;;5025576;28;20045;-77
2022/05/19 02:53:12;;;;;;;12.48;10.05;;;18.70;99.90;;;;;;5032673;28;20048;-82
2022/05/19 02:55:40;;;;;;;17.65;13.02;;;18.60;99.90;;;;;;5044661;28;20039;-81
2022/05/19 02:58:07;;;;;;;14.85;12.10;;;18.60;99.90;;;;;;5042696;28;20029;-77
2022/05/19 03:00:34;;;;;;;14.35;12.35;;;18.60;99.90;;;;;;5041231;28;20028;-76
2022/05/19 03:03:01;;;;;;;13.40;11.13;;;18.60;99.90;;;;;;5027659;28;20021;-77
2022/05/19 03:05:30;;;;;;;15.95;12.57;;;18.60;99.90;;;;;;5047683;28;20037;-77
2022/05/19 03:07:57;;;;;;;15.77;11.60;;;18.60;99.90;;;;;;5021598;28;20040;-77
2022/05/19 03:10:24;;;;;;;15.27;11.77;;;18.60;99.90;;;;;;5014381;28;20617;-77
2022/05/19 03:12:55;;;;;;;13.48;11.07;;;18.60;99.90;;;;;;5034276;28;20037;-77
2022/05/19 03:15:22;;;;;;;18.92;13.30;;;18.60;99.90;;;;;;5045821;28;20075;-77
2022/05/19 03:17:48;;;;;;;14.13;10.80;;;18.70;99.90;;;;;;4991400;28;20461;-77
2022/05/19 03:20:15;;;;;;;14.60;11.32;;;18.80;99.90;;;;;;5008898;28;20933;-76
2022/05/19 03:22:42;;;;;;;11.07;9.35;;;18.80;99.90;;;;;;5024925;28;20025;-77
2022/05/19 03:25:09;;;;;;;14.48;12.55;;;18.80;99.90;;;;;;5035010;28;20461;-77
2022/05/19 03:27:37;;;;;;;15.93;14.15;;;18.90;99.90;;;;;;5024903;28;20045;-77
2022/05/19 03:30:06;;;;;;;12.85;10.68;;;18.90;99.90;;;;;;5045036;28;20033;-77
2022/05/19 03:32:33;;;;;;;12.57;10.52;;;19.00;99.90;;;;;;5022352;28;20055;-77
2022/05/19 03:35:00;;;;;;;13.27;11.25;;;18.90;99.90;;;;;;5047379;28;20036;-77
2022/05/19 03:37:26;;;;;;;12.07;10.85;;;19.00;99.90;;;;;;5041297;28;20464;-76
2022/05/19 03:39:53;;;;;;;18.85;16.60;;;19.00;99.90;;;;;;5013376;28;20049;-77
2022/05/19 03:42:21;;;;;;;18.73;14.30;;;19.10;99.90;;;;;;5063339;28;20028;-76
2022/05/19 03:44:48;;;;;;;17.52;13.45;;;19.10;99.90;;;;;;5049165;28;20029;-77
2022/05/19 03:47:15;;;;;;;12.27;10.65;;;19.10;99.90;;;;;;5027076;28;20500;-77
2022/05/19 03:49:42;;;;;;;11.68;8.50;;;19.20;99.90;;;;;;5048094;28;20041;-77
2022/05/19 03:52:09;;;;;;;9.77;8.75;;;19.30;99.90;;;;;;5019039;28;20017;-77
2022/05/19 03:54:37;;;;;;;9.70;8.50;;;19.30;99.90;;;;;;5017982;28;20029;-77
2022/05/19 03:57:06;;;;;;;11.65;9.35;;;19.40;99.90;;;;;;5042356;28;20029;-76
2022/05/19 03:59:33;;;;;;;9.88;8.50;;;19.50;99.90;;;;;;5046289;28;20461;-77
2022/05/19 04:02:03;;;;;;;10.77;8.88;;;19.50;99.90;;;;;;5040541;28;20032;-77
2022/05/19 04:04:31;;;;;;;8.75;7.28;;;19.50;99.90;;;;;;5046976;28;20025;-77
2022/05/19 04:06:57;;;;;;;13.07;11.77;;;19.60;99.90;;;;;;5044983;28;20035;-77
2022/05/19 04:09:25;;;;;;;11.38;9.52;;;19.60;99.90;;;;;;5048108;28;20041;-77
2022/05/19 04:11:51;;;;;;;7.43;6.63;;;19.60;99.90;;;;;;5048983;28;20495;-77
2022/05/19 04:14:21;;;;;;;16.20;9.48;;;19.70;99.90;;;;;;5049827;28;20033;-77
2022/05/19 04:16:52;;;;;;;10.38;7.18;;;19.70;99.90;;;;;;5049996;28;20122;-77
2022/05/19 04:19:19;;;;;;;6.68;5.72;;;19.80;99.90;;;;;;5052536;28;20048;-77
2022/05/19 04:21:45;;;;;;;8.32;6.53;;;19.80;99.90;;;;;;5033350;28;20341;-77
2022/05/19 04:24:13;;;;;;;7.15;5.57;;;19.90;99.90;;;;;;5050319;28;20468;-77
2022/05/19 04:26:39;;;;;;;5.88;4.97;;;19.90;99.90;;;;;;5064179;28;20031;-77
2022/05/19 04:29:06;;;;;;;7.07;4.03;;;19.90;99.90;;;;;;5033307;28;20047;-77
2022/05/19 04:31:32;;;;;;;5.55;3.60;;;19.90;99.90;;;;;;5036787;28;20518;-77
2022/05/19 04:34:04;;;;;;;7.22;3.42;;;19.90;99.90;;;;;;5066222;28;20028;-77
2022/05/19 04:36:44;;;;;;;3.63;3.22;;;20.00;99.90;;;;;;5033314;28;20041;-77
2022/05/19 04:39:14;;;;;;;7.15;4.75;;;20.00;99.90;;;;;;5066424;28;20036;-77
2022/05/19 04:41:41;;;;;;;5.03;2.80;;;20.10;99.90;;;;;;5066165;28;20025;-77
2022/05/19 04:44:07;;;;;;;4.00;2.03;;;20.10;99.90;;;;;;5048358;28;20021;-77
2022/05/19 04:46:34;;;;;;;4.70;2.78;;;20.10;99.90;;;;;;5063644;28;20048;-77
2022/05/19 04:49:00;;;;;;;2.50;1.70;;;20.10;99.90;;;;;;5033539;28;20033;-77
2022/05/19 04:51:27;;;;;;;2.40;1.30;;;20.10;99.90;;;;;;5051099;28;20032;-77
2022/05/19 04:53:53;;;;;;;3.83;1.42;;;20.20;99.90;;;;;;5049611;28;20480;-77
2022/05/19 04:56:20;;;;;;;4.65;2.20;;;20.20;99.90;;;;;;5044343;28;20495;-77
2022/05/19 04:58:46;;;;;;;2.63;1.50;;;20.20;99.90;;;;;;5046730;28;20039;-77
2022/05/19 05:01:13;;;;;;;2.80;1.40;;;20.20;99.90;;;;;;5046534;28;20027;-77
2022/05/19 05:03:39;;;;;;;2.30;1.00;;;20.20;99.90;;;;;;5020798;28;20035;-77
2022/05/19 05:06:05;;;;;;;4.03;1.00;;;20.30;99.90;;;;;;5014421;28;20028;-76
2022/05/19 05:08:32;;;;;;;3.63;1.10;;;20.30;99.90;;;;;;5063311;28;20044;-77
2022/05/19 05:10:58;;;;;;;1.95;0.90;;;20.30;99.90;;;;;;5043113;28;20041;-77
2022/05/19 05:13:26;;;;;;;1.58;0.90;;;20.30;99.90;;;;;;5045921;28;20048;-77
2022/05/19 05:15:53;;;;;;;1.38;0.80;;;20.40;99.90;;;;;;5046180;28;20017;-77
2022/05/19 05:18:19;;;;;;;2.13;0.98;;;20.40;99.90;;;;;;5024616;28;20033;-77
2022/05/19 05:20:46;;;;;;;1.60;0.90;;;20.40;99.90;;;;;;5030477;28;20033;-77
2022/05/19 05:23:13;;;;;;;1.55;0.82;;;20.50;99.90;;;;;;5031748;28;20036;-77
2022/05/19 05:25:39;;;;;;;2.60;0.80;;;20.60;99.90;;;;;;5027439;28;20354;-77
2022/05/19 05:28:06;;;;;;;3.00;1.10;;;20.70;99.90;;;;;;5007664;28;20785;-78
2022/05/19 05:30:33;;;;;;;2.20;0.90;;;20.80;99.90;;;;;;5029390;28;20036;-78
2022/05/19 05:33:08;;;;;;;1.52;0.60;;;21.00;99.90;;;;;;5029845;28;20037;-78
2022/05/19 05:35:35;;;;;;;2.50;0.88;;;21.20;99.90;;;;;;5028950;28;20376;-79
2022/05/19 05:38:02;;;;;;;2.42;1.00;;;21.40;99.90;;;;;;5041478;28;20396;-79
2022/05/19 05:40:29;;;;;;;1.80;0.80;;;21.60;99.90;;;;;;5011403;28;20021;-79
2022/05/19 05:42:56;;;;;;;2.63;1.40;;;21.70;99.90;;;;;;5043508;28;20037;-79
2022/05/19 05:45:23;;;;;;;2.63;1.30;;;21.70;99.90;;;;;;5046148;28;20025;-78
2022/05/19 05:47:49;;;;;;;2.25;0.80;;;21.60;99.80;;;;;;5039611;28;20036;-80
2022/05/19 05:50:15;;;;;;;1.30;0.75;;;21.60;99.70;;;;;;5043941;28;20049;-79
2022/05/19 05:52:42;;;;;;;2.92;0.77;;;21.50;99.50;;;;;;5043765;28;20037;-79
2022/05/19 05:55:08;;;;;;;1.48;0.75;;;21.40;99.70;;;;;;5014472;28;20024;-78
2022/05/19 05:57:35;;;;;;;1.25;0.60;;;21.40;99.50;;;;;;5041498;28;20032;-78
2022/05/19 06:00:04;;;;;;;1.40;0.80;;;21.40;99.50;;;;;;5045004;28;20587;-78
2022/05/19 06:02:39;;;;;;;2.50;1.10;;;21.50;99.40;;;;;;5060824;28;20028;-78
2022/05/19 06:05:06;;;;;;;3.13;1.00;;;21.50;99.40;;;;;;5045703;28;20017;-78
2022/05/19 06:07:32;;;;;;;1.27;0.70;;;21.60;99.30;;;;;;5023659;28;21315;-78
2022/05/19 06:09:59;;;;;;;1.80;0.77;;;21.70;99.20;;;;;;5044807;28;20068;-78
2022/05/19 06:12:25;;;;;;;2.38;0.63;;;21.80;99.10;;;;;;5031800;28;20147;-78
2022/05/19 06:14:56;;;;;;;3.00;0.70;;;21.80;99.10;;;;;;5061133;28;20033;-78
2022/05/19 06:17:24;;;;;;;1.33;0.70;;;21.90;99.10;;;;;;5045696;28;20064;-78
2022/05/19 06:19:50;;;;;;;2.67;0.80;;;22.10;99.00;;;;;;5061149;28;20040;-78
2022/05/19 06:22:17;;;;;;;3.17;0.93;;;22.10;98.80;;;;;;5045533;28;20025;-78
2022/05/19 06:24:45;;;;;;;2.05;0.63;;;22.10;98.80;;;;;;5026552;28;20385;-82
2022/05/19 06:27:11;;;;;;;1.23;0.50;;;22.00;98.80;;;;;;5054908;28;20040;-81
2022/05/19 06:29:37;;;;;;;5.00;0.93;;;22.00;98.90;;;;;;5013106;28;20464;-81
2022/05/19 06:32:04;;;;;;;1.33;0.60;;;22.00;99.00;;;;;;5047629;28;20377;-81
2022/05/19 06:34:30;;;;;;;1.70;0.70;;;22.10;99.00;;;;;;5046508;28;20043;-81
2022/05/19 06:36:57;;;;;;;1.35;0.70;;;22.20;99.00;;;;;;5044471;28;20040;-81
2022/05/19 06:39:24;;;;;;;1.60;0.60;;;22.30;99.00;;;;;;5026463;28;20029;-81
2022/05/19 06:42:02;;;;;;;1.60;0.68;;;22.40;98.90;;;;;;5027503;28;20056;-82
2022/05/19 06:44:35;;;;;;;1.20;0.60;;;22.40;99.00;;;;;;5012367;28;20461;-82
2022/05/19 06:47:02;;;;;;;2.38;0.77;;;22.50;98.70;;;;;;5030403;28;20025;-81
2022/05/19 06:49:29;;;;;;;1.25;0.77;;;22.50;98.50;;;;;;5042857;28;20041;-86
2022/05/19 06:51:56;;;;;;;1.67;0.57;;;22.50;98.40;;;;;;5044456;28;20021;-82
2022/05/19 06:54:22;;;;;;;1.70;0.93;;;22.50;98.30;;;;;;5044871;28;20055;-82
2022/05/19 06:56:49;;;;;;;1.58;0.90;;;22.50;98.10;;;;;;5054154;28;20037;-82
2022/05/19 06:59:16;;;;;;;2.00;0.80;;;22.50;97.90;;;;;;5064125;28;20033;-82
2022/05/19 07:01:45;;;;;;;2.67;0.70;;;22.50;97.80;;;;;;5047894;28;20021;-80
2022/05/19 07:04:12;;;;;;;2.08;1.15;;;22.40;97.80;;;;;;5050057;28;20021;-80
2022/05/19 07:06:38;;;;;;;1.42;0.80;;;22.50;97.70;;;;;;5034671;28;22781;-81
2022/05/19 07:09:05;;;;;;;1.83;0.82;;;22.50;97.70;;;;;;5031305;28;20396;-81
2022/05/19 07:11:31;;;;;;;3.50;1.13;;;22.60;97.70;;;;;;5032746;28;20050;-81
2022/05/19 07:14:01;;;;;;;1.95;0.80;;;22.80;97.60;;;;;;5048795;28;20033;-81
2022/05/19 07:16:29;;;;;;;2.13;0.98;;;22.80;97.50;;;;;;5046510;28;20045;-81
2022/05/19 07:20:43;;;;;;;1.73;1.00;;;23.00;97.40;;;;;;5049270;28;20041;-81
2022/05/19 07:21:43;;;;;;;2.38;0.98;;;23.00;97.20;;;;;;5042932;28;20029;-81
2022/05/19 07:24:14;;;;;;;2.60;1.20;;;23.20;97.30;;;;;;5030568;28;20476;-81
2022/05/19 07:26:45;;;;;;;2.63;1.00;;;23.30;97.10;;;;;;5029066;28;20028;-81
2022/05/19 07:29:12;;;;;;;3.67;1.30;;;23.40;97.00;;;;;;5048408;28;20066;-82
2022/05/19 07:31:40;;;;;;;2.63;0.80;;;23.60;96.90;;;;;;5017404;28;20032;-81
2022/05/19 07:34:08;;;;;;;3.33;1.40;;;23.70;96.90;;;;;;5051080;28;20025;-81
2022/05/19 07:36:35;;;;;;;3.65;1.05;;;23.90;96.80;;;;;;5033755;28;20048;-81
2022/05/19 07:39:02;;;;;;;3.47;1.15;;;24.00;96.70;;;;;;5048105;28;20043;-81
2022/05/19 07:41:30;;;;;;;5.63;1.35;;;24.10;96.60;;;;;;5047063;28;20029;-81
2022/05/19 07:44:06;;;;;;;3.05;1.17;;;24.20;96.40;;;;;;5058381;28;20056;-81
2022/05/19 07:46:40;;;;;;;2.08;1.00;;;24.20;96.20;;;;;;5059642;28;20087;-81
2022/05/19 07:49:07;;;;;;;4.18;1.33;;;24.30;96.10;;;;;;5047565;28;20383;-81
2022/05/19 07:51:40;;;;;;;3.47;1.23;;;24.40;96.10;;;;;;5047346;28;20036;-81
2022/05/19 07:54:09;;;;;;;3.53;0.80;;;24.50;95.90;;;;;;5031962;28;20039;-81
2022/05/19 07:56:35;;;;;;;3.10;1.25;;;24.60;95.70;;;;;;5015758;28;20044;-77
2022/05/19 07:59:02;;;;;;;1.63;0.90;;;24.60;95.50;;;;;;5031036;28;20037;-79
2022/05/19 08:01:29;;;;;;;2.90;0.80;;;24.60;95.40;;;;;;5056144;28;20036;-79
2022/05/19 08:03:58;;;;;;;3.30;0.80;;;24.60;95.40;;;;;;5032633;28;20036;-78
2022/05/19 08:06:24;;;;;;;5.78;3.63;;;24.60;95.30;;;;;;5047605;28;20386;-80
2022/05/19 08:08:51;;;;;;;4.30;1.40;;;24.60;95.30;;;;;;5047033;28;20032;-80
2022/05/19 08:11:17;;;;;;;2.22;1.10;;;24.50;95.20;;;;;;5044474;28;20049;-79
2022/05/19 08:16:29;;;;;;;2.70;1.05;;;24.70;95.00;;;;;;5046150;28;20051;-88
2022/05/19 08:18:55;;;;;;;3.80;1.00;;;24.90;94.70;;;;;;5033390;28;20048;-82
2022/05/19 08:21:22;;;;;;;2.13;1.20;;;25.10;94.50;;;;;;5048286;28;20044;-82
2022/05/19 08:23:52;;;;;;;2.47;0.80;;;25.30;94.20;;;;;;5034201;28;20052;-84
2022/05/19 08:26:20;;;;;;;3.03;0.98;;;25.50;93.90;;;;;;5049798;28;20056;-83
2022/05/19 08:28:48;;;;;;;4.32;1.00;;;25.70;93.50;;;;;;5022379;28;20534;-83
2022/05/19 08:31:23;;;;;;;1.40;0.85;;;25.80;93.00;;;;;;5055743;28;20033;-84
2022/05/19 08:33:54;;;;;;;2.65;1.00;;;26.00;92.80;;;;;;5032190;28;20037;-84
2022/05/19 08:36:21;;;;;;;3.03;1.38;;;26.30;92.60;;;;;;5032443;28;20488;-83
2022/05/19 08:38:47;;;;;;;2.60;1.17;;;26.60;92.10;;;;;;5035461;28;20036;-78
2022/05/19 08:41:20;;;;;;;2.95;1.30;;;26.80;91.70;;;;;;5050300;28;20033;-79
2022/05/19 08:43:58;;;;;;;3.88;2.72;;;27.00;91.10;;;;;;5046296;28;20028;-79
2022/05/19 08:46:31;;;;;;;2.70;2.13;;;27.00;91.00;;;;;;5043338;28;20037;-79
2022/05/19 08:49:42;;;;;;;2.40;1.67;;;27.20;90.90;;;;;;5028487;28;20492;-80
2022/05/19 08:52:10;;;;;;;1.95;1.10;;;27.30;90.70;;;;;;4979397;28;20441;-80
2022/05/19 08:54:42;;;;;;;3.95;1.20;;;27.40;90.60;;;;;;5059363;28;20032;-79
2022/05/19 08:57:29;;;;;;;1.88;1.10;;;27.60;90.00;;;;;;5043032;28;20484;-79
2022/05/19 09:00:24;;;;;;;2.72;1.40;;;27.70;89.10;;;;;;5046801;28;20519;-79
2022/05/19 09:03:08;;;;;;;3.75;1.80;;;27.70;87.90;;;;;;5052628;28;20044;-83
2022/05/19 09:06:05;;;;;;;1.92;1.50;;;27.80;87.80;;;;;;5045588;28;20036;-82
2022/05/19 09:08:31;;;;;;;2.67;1.60;;;27.90;87.00;;;;;;5045581;28;20037;-82
2022/05/19 09:11:12;;;;;;;3.05;2.53;;;28.10;86.90;;;;;;5044712;28;20075;-83
2022/05/19 09:13:53;;;;;;;4.03;1.88;;;28.30;85.50;;;;;;5047361;28;20036;-85
2022/05/19 09:16:30;;;;;;;4.15;1.55;;;28.40;84.80;;;;;;5041874;28;20112;-86
2022/05/19 09:19:07;;;;;;;2.28;1.42;;;28.40;84.20;;;;;;5046671;28;20432;-86
2022/05/19 09:21:36;;;;;;;1.92;1.10;;;28.40;83.70;;;;;;5043162;28;20033;-87
2022/05/19 09:24:04;;;;;;;2.08;1.38;;;28.40;83.60;;;;;;5029634;28;20036;-87
2022/05/19 09:26:47;;;;;;;2.97;1.65;;;28.50;83.20;;;;;;5042896;28;20453;-84
2022/05/19 09:29:17;;;;;;;2.92;2.10;;;28.40;82.80;;;;;;5045009;28;20013;-84
2022/05/19 09:31:50;;;;;;;2.40;2.20;;;28.50;82.90;;;;;;5045602;28;20036;-83
2022/05/19 09:34:18;;;;;;;4.65;2.53;;;28.70;82.60;;;;;;5023952;28;20040;-81
2022/05/19 09:37:01;;;;;;;6.35;2.17;;;28.90;82.20;;;;;;5043155;28;20025;-80
2022/05/19 09:39:33;;;;;;;2.97;1.80;;;29.30;81.70;;;;;;5043879;28;20048;-87
2022/05/19 09:42:05;;;;;;;1.92;1.25;;;29.60;80.80;;;;;;5044405;28;20024;-82
2022/05/19 09:44:32;;;;;;;;;;;29.80;80.20;;;;;;5030410;28;20381;-86
2022/05/19 09:47:14;;;;;;;2.70;1.98;;;30.10;79.80;;;;;;5041836;28;19904;-84
2022/05/19 09:49:44;;;;;;;2.40;2.00;;;30.30;79.00;;;;;;5037019;28;20028;-83
2022/05/19 09:52:18;;;;;;;5.43;2.30;;;30.40;78.30;;;;;;5048139;28;20029;-84
2022/05/19 09:54:53;;;;;;;3.55;1.73;;;30.40;77.70;;;;;;5017546;28;20036;-84
2022/05/19 09:57:26;;;;;;;4.05;1.60;;;30.40;78.20;;;;;;5024264;28;20036;-84
2022/05/19 09:59:57;;;;;;;1.90;1.30;;;30.40;77.00;;;;;;5028926;28;20060;-84
2022/05/19 10:02:24;;;;;;;3.95;1.10;;;30.30;76.30;;;;;;5044721;28;20021;-84
2022/05/19 10:04:55;;;;;;;3.63;1.92;;;30.30;75.90;;;;;;5034223;28;20032;-84
2022/05/19 10:07:24;;;;;;;2.58;1.20;;;30.30;74.70;;;;;;5024244;28;20473;-84
2022/05/19 10:09:53;;;;;;;2.90;1.60;;;30.10;75.10;;;;;;5035294;28;20025;-83
2022/05/19 10:12:28;;;;;;;3.20;1.52;;;30.00;74.90;;;;;;5047409;28;20118;-82
2022/05/19 10:15:00;;;;;;;5.22;2.35;;;29.90;75.10;;;;;;5062247;28;20037;-82
2022/05/19 10:17:37;;;;;;;3.50;1.60;;;29.80;75.50;;;;;;5034189;28;20047;-85
2022/05/19 10:20:22;;;;;;;3.25;1.40;;;29.70;75.60;;;;;;5050069;28;20025;-82
2022/05/19 10:22:56;;;;;;;1.92;1.40;;;29.70;75.70;;;;;;5064924;28;20032;-82
2022/05/19 10:25:58;;;;;;;4.03;1.67;;;29.70;75.60;;;;;;5051299;28;20036;-82
2022/05/19 10:32:40;;;;;;;2.70;1.30;;;30.00;74.60;;;;;;5003173;28;20034;-84
2022/05/19 10:35:26;;;;;;;3.22;1.33;;;30.30;73.50;;;;;;5003500;28;20073;-85
2022/05/19 10:38:05;;;;;;;4.68;1.42;;;30.50;73.00;;;;;;5025175;28;20060;-84
2022/05/19 10:40:55;;;;;;;3.15;1.45;;;30.70;72.50;;;;;;5062880;28;20043;-83
2022/05/19 10:43:34;;;;;;;2.95;1.33;;;30.80;72.40;;;;;;5029976;28;20033;-84
2022/05/19 10:46:05;;;;;;;2.30;1.40;;;30.80;70.90;;;;;;5064556;28;20037;-83
2022/05/19 10:49:13;;;;;;;2.17;1.38;;;30.70;70.90;;;;;;5030792;28;20471;-83
2022/05/19 10:52:26;;;;;;;2.65;1.45;;;30.80;70.90;;;;;;5046022;28;20037;-83
2022/05/19 10:55:36;;;;;;;2.65;1.60;;;31.20;69.00;;;;;;5048506;28;20028;-84
2022/05/19 10:58:55;;;;;;;3.15;1.73;;;31.50;69.00;;;;;;5039017;28;20044;-84
2022/05/19 11:01:49;;;;;;;1.70;1.02;;;31.80;68.20;;;;;;5050601;28;20029;-90
2022/05/19 11:04:42;;;;;;;4.50;1.58;;;31.70;66.70;;;;;;5046896;28;20047;-82
2022/05/19 11:07:22;;;;;;;3.47;2.05;;;31.70;66.10;;;;;;5063406;28;20040;-87
2022/05/19 11:10:04;;;;;;;4.85;2.00;;;31.60;66.30;;;;;;5065146;28;21382;-82
2022/05/19 11:13:04;;;;;;;3.88;1.73;;;31.90;66.30;;;;;;5064865;28;20305;-84
2022/05/19 11:15:47;;;;;;;2.65;1.20;;;32.30;65.80;;;;;;5039796;28;20037;-82
2022/05/19 11:18:36;;;;;;;4.22;1.30;;;32.40;65.40;;;;;;5022469;28;20033;-82
2022/05/19 11:21:19;;;;;;;1.90;1.17;;;32.30;64.80;;;;;;5063567;28;20039;-82
2022/05/19 11:23:56;;;;;;;4.47;1.58;;;32.30;64.70;;;;;;5050025;28;20036;-86
2022/05/19 11:26:39;;;;;;;3.05;1.67;;;32.50;64.00;;;;;;5044635;28;20041;-84
2022/05/19 11:29:06;;;;;;;5.05;1.92;;;32.40;62.90;;;;;;5065637;28;20032;-83
2022/05/19 11:32:04;;;;;;;2.28;1.40;;;32.00;63.40;;;;;;5026779;28;20028;-84
2022/05/19 11:35:06;;;;;;;2.17;1.65;;;31.50;64.10;;;;;;5035519;28;20506;-84
2022/05/19 11:38:09;;;;;;;5.07;2.17;;;30.90;65.00;;;;;;5045695;28;20027;-84
2022/05/19 11:40:45;;;;;;;3.25;1.50;;;30.60;66.00;;;;;;5046966;28;20040;-85
2022/05/19 11:43:30;;;;;;;4.47;1.85;;;30.30;65.80;;;;;;5015541;28;20049;-85
2022/05/19 11:46:47;;;;;;;;;;;;;;;;;;;;;
2022/05/19 11:55:42;;;;;;;3.90;1.70;;;29.00;67.90;;;;;;5051873;28;20033;-80
2022/05/19 11:58:20;;;;;;;6.35;1.60;;;28.70;71.30;;;;;;5030278;28;20485;-80
2022/05/19 12:01:01;;;;;;;8.77;2.75;;;28.30;72.70;;;;;;5028600;28;21176;-80
2022/05/19 12:04:07;;;;;;;3.78;2.30;;;27.80;78.90;;;;;;5027147;28;20051;-81
2022/05/19 12:06:45;;;;;;;4.95;2.17;;;27.20;82.60;;;;;;5042494;28;20494;-80
2022/05/19 12:09:42;;;;;;;6.00;3.35;;;26.60;86.50;;;;;;5030914;28;20025;-81
2022/05/19 12:12:23;;;;;;;9.38;3.40;;;26.20;90.10;;;;;;5018024;28;20045;-80
2022/05/19 12:15:17;;;;;;;6.45;3.15;;;25.90;91.40;;;;;;5030437;28;20071;-85
2022/05/19 12:17:53;;;;;;;13.60;4.55;;;25.60;92.60;;;;;;5024353;28;20043;-80
2022/05/19 12:20:38;;;;;;;9.55;3.92;;;25.30;93.90;;;;;;5037598;28;20048;-79
2022/05/19 12:23:16;;;;;;;9.55;4.50;;;25.00;95.40;;;;;;5069187;28;20032;-80
2022/05/19 12:25:45;;;;;;;7.32;1.67;;;24.70;97.00;;;;;;5056623;28;20024;-81
2022/05/19 12:28:18;;;;;;;18.77;2.15;;;24.00;97.20;;;;;;5045925;28;20491;-83
2022/05/19 12:34:00;;;;;;;5.90;0.57;;;20.80;99.90;;;;;;5034913;28;20043;-89
2022/05/19 12:36:30;;;;;;;5.00;0.70;;;19.20;99.90;;;;;;5032990;28;20041;-86
2022/05/19 12:39:17;;;;;;;2.58;0.40;;;18.50;99.90;;;;;;5050195;28;20048;-85
2022/05/19 12:41:48;;;;;;;5.93;0.60;;;18.00;99.90;;;;;;5066362;28;20025;-85
2022/05/19 12:44:29;;;;;;;2.83;0.40;;;17.80;99.90;;;;;;5060239;28;20044;-85
2022/05/19 12:47:10;;;;;;;2.80;0.50;;;17.70;99.90;;;;;;5054735;28;20428;-85
2022/05/19 12:49:37;;;;;;;2.42;0.40;;;17.50;99.90;;;;;;5037030;28;20032;-86
2022/05/19 12:52:13;;;;;;;2.70;0.40;;;17.40;99.90;;;;;;5042892;28;20028;-86
2022/05/19 12:55:11;;;;;;;6.20;0.88;;;17.40;99.90;;;;;;5040405;28;20047;-86
2022/05/19 12:57:38;;;;;;;3.95;0.80;;;17.30;99.90;;;;;;5033064;28;20063;-85
2022/05/19 13:00:07;;;;;;;3.08;1.00;;;17.40;99.90;;;;;;5038612;28;20042;-86
2022/05/19 13:02:46;;;;;;;5.18;2.40;;;17.40;99.90;;;;;;5034043;28;20028;-82
2022/05/19 13:05:30;;;;;;;6.75;3.85;;;17.50;99.90;;;;;;5047917;28;20025;-81
2022/05/19 13:08:06;;;;;;;5.00;2.63;;;17.60;99.90;;;;;;5047192;28;20025;-81
2022/05/19 13:10:42;;;;;;;4.32;2.30;;;17.60;99.90;;;;;;5046945;28;20032;-81
2022/05/19 13:13:21;;;;;;;1.92;1.05;;;17.70;99.90;;;;;;5039965;28;20039;-80
2022/05/19 13:15:54;;;;;;;4.00;1.00;;;17.60;99.90;;;;;;5043348;28;20020;-81
2022/05/19 13:18:36;;;;;;;4.05;1.40;;;17.70;99.90;;;;;;5044379;28;20036;-80
2022/05/19 13:21:09;;;;;;;2.97;1.50;;;17.70;99.90;;;;;;5067041;28;20039;-84
2022/05/19 13:23:40;;;;;;;5.53;1.75;;;17.70;99.90;;;;;;5022417;28;20031;-83
2022/05/19 13:26:21;;;;;;;4.55;1.60;;;17.70;99.90;;;;;;5032892;28;20469;-86
2022/05/19 13:32:02;;;;;;;2.33;1.15;;;17.80;99.90;;;;;;5046547;28;20035;-83
2022/05/19 13:34:41;;;;;;;4.63;1.40;;;17.80;99.90;;;;;;5033009;28;20048;-80
2022/05/19 13:37:10;;;;;;;4.03;1.88;;;17.80;99.90;;;;;;5046968;28;20032;-83